Kihei, HI

6:20 PM HST on November 27, 2014 (GMT -1000)
Maui Meadows | Change Station
CLOSE
Current Station
Personal Weather Station
Location: Kihei, HI
Elevation: 512 ft
Nearby Weather Stations
Active Advisory: High Surf Advisory

Elev 512 ft 20.70 °N, 156.42 °W | Updated 3 minutes ago

Scattered Clouds
Scattered Clouds
71.9 °F
Feels Like 74 °F
N
0.0
Wind Variable Wind from NW
Gusts 0.0 mph

Today
High -- | Low -- °F
--% Chance of Precip.
Yesterday
High -- | Low -- °F
Precip. -- in
6:43 AM 5:43 PM
Waxing Crescent, 36% visible
Pressure 30.06 in
Visibility 10.0 miles
Clouds Scattered Clouds 4500 ft
Scattered Clouds 6500 ft
Heat Index 74 °F
Dew Point 62 °F
Humidity 71%
Rainfall 0.00 in
Snow Depth Not available.
UV 0 out of 12
Pollen Not available.
Air Quality Not available.
Flu Activity Not available.
METAR PHOG 280354Z 05011KT 10SM SCT045 SCT065 24/16 A3005 RMK AO2 SLP180 T02390161 $

More Conditions Fewer Conditions

Pressure 30.06 in
Visibility 10.0 miles
Clouds Scattered Clouds 4500 ft
Scattered Clouds 6500 ft
Heat Index 74 °F
Dew Point 62 °F
Humidity 71%
Rainfall 0.00 in
Snow Depth Not available.
UV 0 out of 12
Pollen Not available.
Air Quality Not available.
Flu Activity Not available.
METAR PHOG 280354Z 05011KT 10SM SCT045 SCT065 24/16 A3005 RMK AO2 SLP180 T02390161 $

More Conditions Fewer Conditions

10-Day Weather Forecast

Almanac

Astronomy

Nov. 27, 2014 Rise Set
Actual Time
Civil Twilight
Nautical Twilight
Astronomical Twilight
Moon
Length of Visible Light
Length of Day
Tomorrow will be .
, % of the Moon is Illuminated

Today's Extremes

State Highs State Lows

Community

WunderPhotos

Upload Photos

1,774,179 photos uploaded!

WunderBlogs® & News

Nearby

Air Quality

  Air Quality AQ Index Pollutant
Not available.

Snow Depth

Station Depth Elevation

Earthquake Activity

City Distance Mag. Time & Date
Minimum magnitude displayed is 2.5.

Coastal Water Temperatures

Place Temperature

Nearby Weather Stations